Time;durP1;ratioP1;P1;durP2;ratioP2;P2;SDS_P1;SDS_P2;PMS_P1;PMS_P2;Temp;Humidity;BMP_temperature;BMP_pressure;BME280_temperature;BME280_humidity;BME280_pressure;Samples;Min_cycle;Max_cycle;Signal;HPM_P1;HPM_P2
2021/07/09 00:00:57;;;;;;;2.78;1.98;;;;;;;14.70;100.00;96193.25;4994046;28;20801;-76
2021/07/09 00:03:23;;;;;;;2.90;1.90;;;;;;;14.59;100.00;96195.81;4993980;28;20422;-76
2021/07/09 00:05:48;;;;;;;2.65;1.52;;;;;;;14.64;100.00;96205.91;4993637;28;20417;-76
2021/07/09 00:08:13;;;;;;;4.70;2.23;;;;;;;14.50;100.00;96204.31;4993676;28;20418;-76
2021/07/09 00:10:39;;;;;;;7.17;1.93;;;;;;;14.57;100.00;96210.72;4993813;28;20841;-76
2021/07/09 00:13:04;;;;;;;4.10;1.73;;;;;;;14.56;100.00;96203.03;4992576;28;20428;-76
2021/07/09 00:15:30;;;;;;;2.05;1.50;;;;;;;14.52;100.00;96210.22;4993416;28;20539;-76
2021/07/09 00:17:57;;;;;;;3.33;1.53;;;;;;;14.53;100.00;96201.47;4992390;28;20431;-76
2021/07/09 00:20:22;;;;;;;3.50;1.73;;;;;;;14.47;100.00;96200.09;4993698;28;20831;-76
2021/07/09 00:22:47;;;;;;;2.43;1.57;;;;;;;14.57;100.00;96197.69;4993521;28;20414;-76
2021/07/09 00:25:13;;;;;;;3.67;1.50;;;;;;;14.51;100.00;96203.34;4993397;28;20852;-76
2021/07/09 00:27:39;;;;;;;2.80;1.67;;;;;;;14.42;100.00;96202.19;4993520;28;20779;-76
2021/07/09 00:30:05;;;;;;;4.33;1.90;;;;;;;14.46;100.00;96208.00;4993412;28;20414;-76
2021/07/09 00:32:30;;;;;;;2.15;1.58;;;;;;;14.45;100.00;96207.19;4992221;28;20464;-76
2021/07/09 00:34:57;;;;;;;3.28;1.60;;;;;;;14.48;100.00;96209.59;4993345;28;20465;-76
2021/07/09 00:37:22;;;;;;;5.03;1.80;;;;;;;14.43;100.00;96193.44;4992927;28;20422;-76
2021/07/09 00:39:48;;;;;;;2.77;1.40;;;;;;;14.43;100.00;96197.84;4992052;28;20418;-76
2021/07/09 00:42:13;;;;;;;4.07;1.67;;;;;;;14.43;100.00;96203.88;4993223;28;20781;-76
2021/07/09 00:44:39;;;;;;;2.23;1.40;;;;;;;14.36;100.00;96194.00;4992106;28;20904;-76
2021/07/09 00:47:04;;;;;;;2.23;1.43;;;;;;;14.36;100.00;96196.59;4992251;28;20754;-76
2021/07/09 00:49:29;;;;;;;2.77;1.40;;;;;;;14.38;100.00;96198.16;4993023;28;20422;-76
2021/07/09 00:51:56;;;;;;;2.87;1.57;;;;;;;14.42;100.00;96198.75;4993079;28;20422;-76
2021/07/09 00:54:21;;;;;;;1.75;1.35;;;;;;;14.41;100.00;96200.53;4992986;28;20426;-76
2021/07/09 00:56:47;;;;;;;3.20;1.50;;;;;;;14.33;100.00;96197.66;4992859;28;20431;-76
2021/07/09 00:59:15;;;;;;;2.40;1.40;;;;;;;14.31;100.00;96198.69;4992871;28;20418;-76
2021/07/09 01:01:40;;;;;;;3.03;1.53;;;;;;;14.29;100.00;96191.81;4993094;28;20481;-76
2021/07/09 01:04:06;;;;;;;2.37;1.43;;;;;;;14.30;100.00;96182.22;4992884;28;20426;-76
2021/07/09 01:06:31;;;;;;;2.50;1.70;;;;;;;14.25;100.00;96177.34;4992499;28;20465;-76
2021/07/09 01:08:58;;;;;;;2.47;1.50;;;;;;;14.25;100.00;96184.34;4991462;28;20501;-76
2021/07/09 01:11:24;;;;;;;2.13;1.58;;;;;;;14.23;100.00;96179.22;4992769;28;20900;-76
2021/07/09 01:13:51;;;;;;;3.97;1.90;;;;;;;14.20;100.00;96181.22;4991443;28;20426;-76
2021/07/09 01:16:16;;;;;;;3.38;1.70;;;;;;;14.19;100.00;96169.97;4992467;28;20521;-76
2021/07/09 01:18:42;;;;;;;2.88;1.50;;;;;;;14.24;100.00;96167.88;4991118;28;20857;-76
2021/07/09 01:21:09;;;;;;;3.55;1.90;;;;;;;14.20;100.00;96176.84;4992890;28;20477;-76
2021/07/09 01:23:36;;;;;;;2.10;1.58;;;;;;;14.31;100.00;96183.06;4992516;28;20418;-76
2021/07/09 01:26:04;;;;;;;2.75;1.60;;;;;;;14.19;100.00;96189.97;4990924;28;20426;-76
2021/07/09 01:28:30;;;;;;;2.38;1.52;;;;;;;14.20;100.00;96184.66;4990969;28;20845;-76
2021/07/09 01:30:55;;;;;;;3.22;1.60;;;;;;;14.13;100.00;96183.44;4992368;28;20472;-76
2021/07/09 01:33:21;;;;;;;4.07;1.90;;;;;;;14.13;100.00;96193.84;4991455;28;20454;-76
2021/07/09 01:35:46;;;;;;;2.30;1.50;;;;;;;14.11;100.00;96181.88;4992084;28;20430;-76
2021/07/09 01:38:12;;;;;;;3.73;1.87;;;;;;;14.09;100.00;96179.38;4991582;28;20905;-76
2021/07/09 01:40:39;;;;;;;3.17;1.77;;;;;;;14.11;100.00;96187.91;4996605;28;20434;-76
2021/07/09 01:43:06;;;;;;;3.38;1.73;;;;;;;14.09;100.00;96184.59;4995603;28;20928;-76
2021/07/09 01:45:33;;;;;;;2.67;1.60;;;;;;;14.11;100.00;96192.28;4990889;28;20785;-76
2021/07/09 01:47:58;;;;;;;2.47;1.55;;;;;;;14.08;100.00;96188.13;4990956;28;20438;-76
2021/07/09 01:50:25;;;;;;;3.63;1.80;;;;;;;14.09;100.00;96186.34;4991920;28;20469;-76
2021/07/09 01:52:51;;;;;;;3.33;1.60;;;;;;;14.08;100.00;96185.50;4991945;28;20485;-76
2021/07/09 01:55:17;;;;;;;2.75;1.85;;;;;;;14.04;100.00;96186.66;4990417;28;20984;-77
2021/07/09 01:57:44;;;;;;;2.37;1.80;;;;;;;14.09;100.00;96182.00;4991881;28;20455;-76
2021/07/09 02:00:13;;;;;;;6.25;1.83;;;;;;;14.11;100.00;96184.47;4991559;28;20422;-76
2021/07/09 02:02:39;;;;;;;2.90;1.70;;;;;;;14.21;100.00;96181.13;4992232;28;20505;-76
2021/07/09 02:05:08;;;;;;;3.20;1.90;;;;;;;14.08;100.00;96184.69;4991658;28;20904;-76
2021/07/09 02:07:33;;;;;;;3.35;1.70;;;;;;;14.07;100.00;96180.44;4991558;28;20453;-76
2021/07/09 02:09:59;;;;;;;4.55;1.63;;;;;;;14.09;100.00;96174.19;4991612;28;20473;-76
2021/07/09 02:12:26;;;;;;;7.10;1.60;;;;;;;14.06;100.00;96181.38;4991705;28;20832;-76
2021/07/09 02:14:52;;;;;;;3.88;1.77;;;;;;;14.00;100.00;96180.00;4991615;28;20421;-76
2021/07/09 02:17:22;;;;;;;2.90;1.70;;;;;;;14.00;100.00;96182.63;4991171;28;20509;-76
2021/07/09 02:19:48;;;;;;;2.80;1.57;;;;;;;14.03;100.00;96183.25;4991511;28;20851;-76
2021/07/09 02:22:15;;;;;;;3.03;1.70;;;;;;;14.03;100.00;96185.84;4990228;28;20943;-76
2021/07/09 02:24:43;;;;;;;2.55;1.65;;;;;;;14.04;100.00;96178.84;4991547;28;20956;-76
2021/07/09 02:27:08;;;;;;;3.47;1.70;;;;;;;14.05;100.00;96185.72;4991225;28;20430;-76
2021/07/09 02:29:35;;;;;;;3.20;1.63;;;;;;;14.09;100.00;96184.59;4991528;28;20995;-76
2021/07/09 02:32:03;;;;;;;4.82;1.63;;;;;;;14.00;100.00;96183.44;4991332;28;20422;-76
2021/07/09 02:34:31;;;;;;;2.03;1.42;;;;;;;14.04;100.00;96186.66;4991228;28;20434;-76
2021/07/09 02:36:58;;;;;;;3.88;1.83;;;;;;;14.03;100.00;96190.22;4988836;28;20453;-76
2021/07/09 02:39:25;;;;;;;2.95;1.95;;;;;;;13.93;100.00;96186.59;4984933;28;20480;-76
2021/07/09 02:41:51;;;;;;;4.13;2.03;;;;;;;13.97;100.00;96188.88;4989921;28;20796;-76
2021/07/09 02:44:16;;;;;;;4.77;2.13;;;;;;;13.95;100.00;96193.38;4991239;28;20428;-76
2021/07/09 02:46:41;;;;;;;3.67;2.43;;;;;;;14.01;100.00;96189.47;4982645;28;20415;-76
2021/07/09 02:49:07;;;;;;;3.37;2.40;;;;;;;13.99;100.00;96189.59;4991385;28;20494;-76
2021/07/09 02:51:34;;;;;;;4.53;2.55;;;;;;;13.99;100.00;96186.16;4990915;28;20414;-76
2021/07/09 02:53:59;;;;;;;4.15;2.28;;;;;;;14.02;100.00;96186.78;4991168;28;20457;-76
2021/07/09 02:56:25;;;;;;;2.80;2.20;;;;;;;14.00;100.00;96182.63;4989610;28;20462;-76
2021/07/09 02:58:50;;;;;;;3.03;2.03;;;;;;;13.99;100.00;96179.19;4990294;28;20508;-76
2021/07/09 03:01:16;;;;;;;4.07;2.25;;;;;;;13.98;100.00;96184.50;4982880;28;20524;-76
2021/07/09 03:03:41;;;;;;;3.70;2.30;;;;;;;13.97;100.00;96175.84;4991097;28;20813;-76
2021/07/09 03:06:06;;;;;;;4.87;2.60;;;;;;;13.98;100.00;96180.13;4981231;28;20770;-76
2021/07/09 03:08:33;;;;;;;5.57;2.33;;;;;;;13.98;100.00;96174.09;4991312;28;20414;-76
2021/07/09 03:10:59;;;;;;;4.28;2.10;;;;;;;13.95;100.00;96182.94;4992535;28;20923;-76
2021/07/09 03:13:24;;;;;;;3.60;1.83;;;;;;;13.94;100.00;96186.50;4994929;28;20453;-77
2021/07/09 03:15:50;;;;;;;3.35;2.15;;;;;;;13.91;100.00;96184.09;4993062;28;20426;-76
2021/07/09 03:18:15;;;;;;;2.97;1.93;;;;;;;13.94;100.00;96183.91;4994620;28;20426;-76
2021/07/09 03:20:40;;;;;;;5.87;2.17;;;;;;;13.92;100.00;96187.53;4994744;28;20453;-76
2021/07/09 03:23:06;;;;;;;11.00;2.35;;;;;;;13.91;100.00;96186.72;4993483;28;20418;-76
2021/07/09 03:25:33;;;;;;;5.97;2.13;;;;;;;13.91;100.00;96189.31;4994456;28;20418;-76
2021/07/09 03:27:58;;;;;;;3.73;2.07;;;;;;;13.91;100.00;96194.50;4986416;28;20430;-76
2021/07/09 03:30:23;;;;;;;3.57;1.93;;;;;;;13.95;100.00;96197.75;4994356;28;20419;-76
2021/07/09 03:32:49;;;;;;;3.50;2.00;;;;;;;13.93;100.00;96191.78;4994560;28;20450;-76
2021/07/09 03:35:14;;;;;;;4.07;2.08;;;;;;;13.90;100.00;96205.84;4994236;28;20422;-76
2021/07/09 03:37:40;;;;;;;3.10;1.90;;;;;;;13.93;100.00;96207.41;4994563;28;20414;-76
2021/07/09 03:40:08;;;;;;;3.27;1.77;;;;;;;13.94;100.00;96201.25;4994419;28;20951;-76
2021/07/09 03:42:35;;;;;;;3.40;1.83;;;;;;;13.94;100.00;96212.53;4994290;28;20429;-76
2021/07/09 03:45:00;;;;;;;2.42;1.70;;;;;;;13.96;100.00;96208.03;4994254;28;20414;-76
2021/07/09 03:47:26;;;;;;;3.00;1.65;;;;;;;13.99;100.00;96209.59;4994103;28;20857;-76
2021/07/09 03:49:51;;;;;;;3.17;1.90;;;;;;;13.95;100.00;96205.56;4994281;28;20464;-76
2021/07/09 03:52:17;;;;;;;1.93;1.60;;;;;;;13.90;100.00;96216.25;4994492;28;20497;-76
2021/07/09 03:54:42;;;;;;;5.13;1.80;;;;;;;13.88;100.00;96212.94;4994130;28;20449;-76
2021/07/09 03:57:07;;;;;;;3.85;1.70;;;;;;;13.87;100.00;96219.09;4992516;28;20430;-76
2021/07/09 03:59:34;;;;;;;3.10;1.30;;;;;;;13.82;100.00;96222.94;4993767;28;20414;-76
2021/07/09 04:02:00;;;;;;;2.75;1.60;;;;;;;13.79;100.00;96218.78;4994044;28;20449;-76
2021/07/09 04:04:25;;;;;;;2.03;1.45;;;;;;;13.70;100.00;96225.44;4992704;28;20445;-76
2021/07/09 04:06:51;;;;;;;3.57;1.63;;;;;;;13.67;100.00;96227.44;4993624;28;20409;-76
2021/07/09 04:09:16;;;;;;;4.83;1.70;;;;;;;13.67;100.00;96223.03;4989904;28;20440;-76
2021/07/09 04:11:42;;;;;;;1.70;1.53;;;;;;;13.72;100.00;96222.72;4987186;28;20450;-76
2021/07/09 04:14:07;;;;;;;7.27;1.73;;;;;;;13.62;100.00;96230.34;4989001;28;20428;-76
2021/07/09 04:16:34;;;;;;;3.67;1.88;;;;;;;13.59;100.00;96234.94;4998312;28;20465;-76
2021/07/09 04:18:59;;;;;;;2.33;1.52;;;;;;;13.58;100.00;96231.50;4993624;28;20429;-76
2021/07/09 04:21:25;;;;;;;2.93;1.70;;;;;;;13.57;100.00;96229.81;4993322;28;20415;-76
2021/07/09 04:23:50;;;;;;;3.33;1.53;;;;;;;13.64;100.00;96235.44;4992051;28;20913;-77
2021/07/09 04:26:16;;;;;;;3.83;1.50;;;;;;;13.63;100.00;96238.97;4992376;28;20605;-74
2021/07/09 04:28:41;;;;;;;4.00;1.83;;;;;;;13.61;100.00;96241.69;4993239;28;20469;-74
2021/07/09 04:31:07;;;;;;;2.93;1.50;;;;;;;13.61;100.00;96241.69;4993602;28;20446;-74
2021/07/09 04:33:33;;;;;;;3.90;1.80;;;;;;;13.66;100.00;96246.59;4993577;28;20940;-74
2021/07/09 04:35:59;;;;;;;3.47;1.63;;;;;;;13.58;100.00;96244.50;4993210;28;20519;-73
2021/07/09 04:38:24;;;;;;;2.07;1.60;;;;;;;13.66;100.00;96257.00;4993414;28;20445;-73
2021/07/09 04:40:50;;;;;;;2.50;1.93;;;;;;;13.58;100.00;96252.31;4996176;28;20457;-73
2021/07/09 04:43:15;;;;;;;2.58;1.70;;;;;;;13.60;100.00;96255.63;4999003;28;20414;-73
2021/07/09 04:45:41;;;;;;;2.67;1.97;;;;;;;13.54;100.00;96254.28;4994608;28;20984;-73
2021/07/09 04:48:07;;;;;;;2.63;1.77;;;;;;;13.61;100.00;96254.72;4993516;28;20490;-73
2021/07/09 04:50:34;;;;;;;5.03;1.83;;;;;;;13.49;100.00;96258.94;4993201;28;20488;-73
2021/07/09 04:52:59;;;;;;;2.47;1.85;;;;;;;13.53;100.00;96259.56;4993215;28;20430;-74
2021/07/09 04:55:25;;;;;;;3.35;1.63;;;;;;;13.49;100.00;96258.13;4992729;28;20793;-73
2021/07/09 04:57:50;;;;;;;2.85;1.70;;;;;;;13.53;100.00;96270.84;4992941;28;20414;-73
2021/07/09 05:00:16;;;;;;;2.90;1.97;;;;;;;13.43;100.00;96268.94;4993360;28;20791;-74
2021/07/09 05:02:42;;;;;;;2.90;1.70;;;;;;;13.43;100.00;96266.34;4993024;28;20434;-73
2021/07/09 05:05:11;;;;;;;2.78;1.67;;;;;;;13.35;100.00;96264.25;4992837;28;20438;-73
2021/07/09 05:07:38;;;;;;;3.63;2.08;;;;;;;13.32;100.00;96267.06;4992783;28;20773;-73
2021/07/09 05:10:04;;;;;;;4.10;2.03;;;;;;;13.36;100.00;96267.69;4992663;28;20414;-73
2021/07/09 05:12:30;;;;;;;5.03;2.30;;;;;;;13.43;100.00;96267.19;4992448;28;21076;-74
2021/07/09 05:14:55;;;;;;;3.33;2.00;;;;;;;13.51;100.00;96272.69;4992631;28;20485;-73
2021/07/09 05:17:21;;;;;;;4.30;1.90;;;;;;;13.46;100.00;96264.38;4992452;28;20414;-74
2021/07/09 05:19:46;;;;;;;5.15;1.95;;;;;;;13.50;100.00;96270.22;4992558;28;20928;-72
2021/07/09 05:22:12;;;;;;;3.15;2.22;;;;;;;13.54;100.00;96272.50;4992683;28;20430;-74
2021/07/09 05:24:39;;;;;;;3.13;2.00;;;;;;;13.54;100.00;96282.91;4991339;28;20517;-76
2021/07/09 05:27:04;;;;;;;6.43;2.13;;;;;;;13.52;100.00;96283.94;4990759;28;20445;-76
2021/07/09 05:29:30;;;;;;;4.97;2.40;;;;;;;13.55;100.00;96287.16;4992197;28;20912;-76
2021/07/09 05:31:55;;;;;;;3.13;1.93;;;;;;;13.54;100.00;96289.88;4991670;28;20879;-74
2021/07/09 05:34:20;;;;;;;4.43;2.50;;;;;;;13.62;100.00;96295.41;4992005;28;20481;-76
2021/07/09 05:36:46;;;;;;;3.92;2.10;;;;;;;13.63;100.00;96294.47;4992101;28;20960;-75
2021/07/09 05:39:13;;;;;;;2.40;2.13;;;;;;;13.58;100.00;96295.72;4990438;28;20430;-75
2021/07/09 05:41:39;;;;;;;3.38;2.58;;;;;;;13.59;100.00;96290.41;4991927;28;20418;-76
2021/07/09 05:44:05;;;;;;;3.58;2.40;;;;;;;13.63;100.00;96286.66;4990813;28;20422;-76
2021/07/09 05:46:31;;;;;;;3.87;2.63;;;;;;;13.57;100.00;96297.47;4991761;28;20813;-76
2021/07/09 05:48:57;;;;;;;4.18;2.67;;;;;;;13.62;100.00;96291.97;4990824;28;20867;-76
2021/07/09 05:51:22;;;;;;;5.97;3.03;;;;;;;13.64;100.00;96301.34;4992077;28;20592;-76
2021/07/09 05:53:47;;;;;;;4.93;2.50;;;;;;;13.70;100.00;96303.53;4991871;28;20423;-76
2021/07/09 05:56:13;;;;;;;3.83;2.77;;;;;;;13.70;100.00;96300.94;4991447;28;20430;-76
2021/07/09 05:58:39;;;;;;;3.87;2.57;;;;;;;13.78;100.00;96297.81;4991506;28;20460;-76
2021/07/09 06:01:05;;;;;;;3.40;2.95;;;;;;;13.84;100.00;96305.22;4991136;28;20811;-76
2021/07/09 06:03:30;;;;;;;3.05;2.53;;;;;;;13.85;100.00;96306.88;4989956;28;20427;-76
2021/07/09 06:05:55;;;;;;;4.63;2.97;;;;;;;13.89;100.00;96305.75;4989484;28;20437;-76
2021/07/09 06:08:21;;;;;;;5.50;3.07;;;;;;;13.96;100.00;96303.56;4990919;28;20425;-76
2021/07/09 06:10:46;;;;;;;6.10;3.60;;;;;;;13.91;100.00;96318.66;4989457;28;20418;-76
2021/07/09 06:13:12;;;;;;;6.65;3.72;;;;;;;14.03;100.00;96320.44;4989688;28;20472;-76
2021/07/09 06:15:39;;;;;;;4.43;2.93;;;;;;;14.00;100.00;96318.88;4990595;28;20480;-76
2021/07/09 06:18:04;;;;;;;5.32;3.10;;;;;;;14.00;100.00;96320.63;4990670;28;20474;-76
2021/07/09 06:20:30;;;;;;;5.00;2.80;;;;;;;14.02;100.00;96306.59;4989533;28;20940;-76
2021/07/09 06:22:55;;;;;;;5.30;3.30;;;;;;;14.09;100.00;96321.78;4989504;28;20431;-76
2021/07/09 06:25:20;;;;;;;6.78;2.95;;;;;;;14.20;100.00;96321.88;4990376;28;20421;-76
2021/07/09 06:27:47;;;;;;;4.83;3.33;;;;;;;14.20;100.00;96327.94;4990785;28;20422;-76
2021/07/09 06:30:14;;;;;;;5.63;3.03;;;;;;;14.34;100.00;96326.16;4990745;28;20414;-76
2021/07/09 06:32:40;;;;;;;5.72;3.20;;;;;;;14.38;100.00;96325.00;4989315;28;20833;-76
2021/07/09 06:35:09;;;;;;;4.55;3.20;;;;;;;14.43;100.00;96328.97;4990563;28;20418;-76
2021/07/09 06:37:35;;;;;;;4.18;2.85;;;;;;;14.60;100.00;96321.75;4989273;28;20476;-76
2021/07/09 06:40:00;;;;;;;4.85;2.88;;;;;;;14.70;100.00;96321.00;4990469;28;20425;-76
2021/07/09 06:42:26;;;;;;;3.97;2.90;;;;;;;14.72;100.00;96328.72;4990595;28;20807;-76
2021/07/09 06:44:51;;;;;;;5.55;3.30;;;;;;;14.79;100.00;96324.75;4990527;28;20457;-76
2021/07/09 06:47:16;;;;;;;3.53;3.10;;;;;;;14.95;100.00;96327.13;4992188;28;20773;-76
2021/07/09 06:49:43;;;;;;;4.17;2.97;;;;;;;14.92;100.00;96330.75;4992701;28;20452;-76
2021/07/09 06:52:09;;;;;;;5.23;3.00;;;;;;;15.09;100.00;96333.94;4992668;28;20419;-76
2021/07/09 06:54:34;;;;;;;4.67;2.70;;;;;;;15.11;100.00;96330.28;4992506;28;20513;-76
2021/07/09 06:57:00;;;;;;;3.93;2.60;;;;;;;15.15;100.00;96333.50;4993717;28;20845;-76
2021/07/09 06:59:25;;;;;;;3.42;2.60;;;;;;;15.33;100.00;96334.78;4928895;28;1845847;-76
2021/07/09 07:01:51;;;;;;;3.77;2.63;;;;;;;15.44;100.00;96336.59;4993943;28;20441;-76
2021/07/09 07:04:16;;;;;;;3.37;2.43;;;;;;;15.24;100.00;96338.91;4994075;28;20422;-76
2021/07/09 07:06:43;;;;;;;4.38;2.65;;;;;;;15.32;100.00;96345.34;4993512;28;20450;-76
2021/07/09 07:09:08;;;;;;;10.07;2.92;;;;;;;15.44;100.00;96345.25;4993405;28;20432;-76
2021/07/09 07:11:34;;;;;;;3.75;2.55;;;;;;;15.60;100.00;96346.75;4995287;28;20418;-76
2021/07/09 07:13:59;;;;;;;4.17;2.30;;;;;;;15.36;100.00;96344.16;4995246;28;20904;-76
2021/07/09 07:16:24;;;;;;;3.30;2.50;;;;;;;15.35;100.00;96345.09;4993456;28;20469;-76
2021/07/09 07:18:50;;;;;;;5.63;2.92;;;;;;;15.54;100.00;96350.66;4994783;28;20534;-74
2021/07/09 07:21:15;;;;;;;5.23;2.80;;;;;;;15.56;100.00;96353.16;4993748;28;20939;-75
2021/07/09 07:23:42;;;;;;;5.00;2.80;;;;;;;15.71;100.00;96349.44;4994669;28;20418;-75
2021/07/09 07:26:08;;;;;;;4.20;3.08;;;;;;;15.99;100.00;96344.78;4993182;28;20777;-75
2021/07/09 07:28:33;;;;;;;7.05;2.80;;;;;;;16.35;99.54;96338.50;4993365;28;20514;-75
2021/07/09 07:30:58;;;;;;;6.63;3.00;;;;;;;16.63;100.00;96348.50;4994476;28;20821;-75
2021/07/09 07:33:24;;;;;;;3.30;2.87;;;;;;;17.15;95.90;96339.19;4994555;28;20414;-75
2021/07/09 07:35:49;;;;;;;3.33;2.60;;;;;;;17.24;90.91;96347.25;4994210;28;21078;-75
2021/07/09 07:38:15;;;;;;;4.97;3.40;;;;;;;16.84;92.02;96345.22;4992958;28;20828;-75
2021/07/09 07:40:42;;;;;;;3.73;3.00;;;;;;;16.54;94.13;96348.38;4993073;28;20493;-75
2021/07/09 07:43:07;;;;;;;4.90;2.97;;;;;;;16.75;92.47;96353.78;4993104;28;20433;-76
2021/07/09 07:45:33;;;;;;;6.20;2.90;;;;;;;16.78;93.02;96348.31;4993163;28;20855;-76
2021/07/09 07:47:59;;;;;;;4.33;2.80;;;;;;;17.03;91.60;96353.28;4989730;28;20432;-76
2021/07/09 07:50:26;;;;;;;4.70;3.10;;;;;;;17.10;90.98;96351.84;4993632;28;20446;-75
2021/07/09 07:52:51;;;;;;;4.57;2.78;;;;;;;16.97;91.31;96345.06;4995158;28;20513;-75
2021/07/09 07:55:17;;;;;;;4.17;2.90;;;;;;;17.26;88.47;96348.81;4990744;28;20859;-75
2021/07/09 07:57:44;;;;;;;3.50;2.50;;;;;;;17.16;85.62;96343.47;5002453;28;20446;-75
2021/07/09 08:00:11;;;;;;;5.30;2.80;;;;;;;17.09;88.80;96349.31;4991964;28;20438;-76
2021/07/09 08:02:37;;;;;;;4.30;2.70;;;;;;;17.37;85.90;96346.16;4993371;28;20422;-76
2021/07/09 08:05:03;;;;;;;3.67;2.63;;;;;;;17.62;86.86;96347.63;4993528;28;20419;-76
2021/07/09 08:07:28;;;;;;;4.20;2.58;;;;;;;17.52;85.49;96344.09;4991738;28;20828;-76
2021/07/09 08:09:54;;;;;;;5.57;2.93;;;;;;;17.58;87.04;96338.34;4993391;28;20469;-76
2021/07/09 08:12:19;;;;;;;8.00;2.73;;;;;;;17.65;85.37;96351.78;4993352;28;20422;-75
2021/07/09 08:14:46;;;;;;;4.53;2.70;;;;;;;18.01;84.95;96345.31;4991703;28;20419;-75
2021/07/09 08:17:11;;;;;;;3.83;2.70;;;;;;;17.79;84.95;96341.00;4992634;28;20793;-75
2021/07/09 08:19:37;;;;;;;3.60;2.33;;;;;;;17.59;85.71;96342.63;4991863;28;20430;-76
2021/07/09 08:22:02;;;;;;;3.83;2.77;;;;;;;17.58;85.13;96346.22;4991890;28;20427;-75
2021/07/09 08:24:28;;;;;;;4.13;2.60;;;;;;;17.63;86.51;96343.22;4990679;28;20794;-76
2021/07/09 08:26:54;;;;;;;4.20;2.20;;;;;;;17.42;83.45;96338.75;4988174;28;20423;-76
2021/07/09 08:29:19;;;;;;;3.53;2.67;;;;;;;17.47;84.12;96345.44;4985938;28;20896;-76
2021/07/09 08:31:46;;;;;;;2.70;2.30;;;;;;;17.52;84.75;96351.94;4985046;28;20419;-76
2021/07/09 08:34:11;;;;;;;3.63;2.70;;;;;;;17.41;83.95;96351.97;4977817;28;20447;-77
2021/07/09 08:36:37;;;;;;;4.70;2.70;;;;;;;17.55;83.27;96350.88;4986395;28;20929;-78
2021/07/09 08:39:03;;;;;;;3.93;2.57;;;;;;;17.63;83.48;96346.66;4983291;28;20435;-74
2021/07/09 08:41:28;;;;;;;5.30;2.43;;;;;;;17.58;82.13;96346.22;4974203;28;20506;-75
2021/07/09 08:43:55;;;;;;;3.57;2.80;;;;;;;17.69;84.03;96337.47;4981865;28;20430;-75
2021/07/09 08:46:21;;;;;;;4.65;3.00;;;;;;;17.56;81.74;96339.44;4980988;28;20412;-75
2021/07/09 08:48:48;;;;;;;7.25;3.20;;;;;;;17.95;80.55;96345.84;4990177;28;21011;-76
2021/07/09 08:51:13;;;;;;;3.10;2.30;;;;;;;17.90;81.06;96340.13;4992229;28;20505;-75
2021/07/09 08:53:39;;;;;;;3.10;2.50;;;;;;;17.66;78.75;96345.59;4984778;28;20489;-75
2021/07/09 08:56:06;;;;;;;3.97;3.05;;;;;;;17.70;78.25;96341.75;5002687;28;20436;-76
2021/07/09 08:58:32;;;;;;;8.07;2.50;;;;;;;17.48;79.99;96353.16;4999771;28;20567;-75
2021/07/09 09:00:57;;;;;;;3.97;2.70;;;;;;;17.73;79.18;96351.97;4993046;28;20442;-76
2021/07/09 09:03:25;;;;;;;5.43;2.40;;;;;;;17.75;78.12;96352.69;4979178;28;20794;-75
2021/07/09 09:05:53;;;;;;;4.60;2.90;;;;;;;17.79;78.75;96356.72;4988543;28;20421;-75
2021/07/09 09:08:21;;;;;;;5.40;2.90;;;;;;;17.96;77.19;96365.00;4990715;28;20473;-76
2021/07/09 09:10:49;;;;;;;3.88;2.53;;;;;;;18.10;77.07;96365.53;4992068;28;20465;-76
2021/07/09 09:13:17;;;;;;;4.80;2.78;;;;;;;18.24;73.94;96376.63;4960979;28;20971;-75
2021/07/09 09:15:45;;;;;;;5.15;2.67;;;;;;;18.56;73.08;96369.50;4984744;28;20928;-76
2021/07/09 09:18:21;;;;;;;5.57;2.75;;;;;;;18.11;74.88;96372.41;4981198;28;20419;-76
2021/07/09 09:20:57;;;;;;;3.83;2.60;;;;;;;18.25;74.65;96380.94;4973168;28;20422;-76
2021/07/09 09:23:22;;;;;;;3.88;2.80;;;;;;;18.23;72.81;96383.66;4973193;28;20424;-75
2021/07/09 09:25:48;;;;;;;6.37;2.97;;;;;;;18.69;71.45;96374.53;4973132;28;20443;-77
2021/07/09 09:28:13;;;;;;;3.73;2.73;;;;;;;18.75;71.84;96378.44;4972993;28;20416;-76
2021/07/09 09:30:41;;;;;;;4.10;2.60;;;;;;;18.96;71.33;96375.78;4973000;28;20458;-76
2021/07/09 09:33:08;;;;;;;4.05;2.53;;;;;;;18.76;71.25;96370.47;4973133;28;20431;-76
2021/07/09 09:35:40;;;;;;;5.50;2.80;;;;;;;18.96;69.13;96375.78;4986102;28;20435;-75
2021/07/09 09:38:09;;;;;;;7.70;3.00;;;;;;;18.88;69.21;96373.00;4992928;28;20414;-76
2021/07/09 09:40:37;;;;;;;5.82;3.78;;;;;;;18.81;68.16;96360.38;4989596;28;20422;-77
2021/07/09 09:43:07;;;;;;;4.47;2.83;;;;;;;18.84;68.45;96361.94;4990325;28;20413;-76
2021/07/09 09:45:34;;;;;;;10.55;3.03;;;;;;;19.18;67.85;96365.06;4989939;28;20435;-77
2021/07/09 09:48:04;;;;;;;5.75;3.58;;;;;;;19.01;67.63;96361.28;4991585;28;20517;-76
2021/07/09 09:50:29;;;;;;;6.10;3.10;;;;;;;19.00;66.52;96361.41;4990227;28;20434;-77
2021/07/09 09:52:55;;;;;;;6.30;3.50;;;;;;;19.16;68.91;96366.16;4990475;28;20430;-76
2021/07/09 09:55:29;;;;;;;7.20;3.50;;;;;;;19.06;67.91;96361.72;4990619;28;20422;-77
2021/07/09 09:58:08;;;;;;;4.63;3.23;;;;;;;19.06;70.38;96363.50;4992034;28;20908;-77
2021/07/09 10:00:34;;;;;;;5.13;3.60;;;;;;;18.89;68.07;96367.59;4991899;28;20418;-77
2021/07/09 10:03:02;;;;;;;4.80;3.50;;;;;;;18.75;68.37;96373.19;4991939;28;20434;-77
2021/07/09 10:05:27;;;;;;;4.97;3.35;;;;;;;18.48;67.32;96369.31;4991607;28;20422;-77
2021/07/09 10:07:56;;;;;;;4.57;3.10;;;;;;;18.79;65.92;96364.91;4990495;28;20473;-77
2021/07/09 10:10:23;;;;;;;7.60;3.37;;;;;;;19.23;65.74;96364.66;4991489;28;20445;-77
2021/07/09 10:12:51;;;;;;;8.18;3.50;;;;;;;19.30;68.89;96358.72;4992282;28;20909;-77
2021/07/09 10:15:16;;;;;;;6.43;3.30;;;;;;;19.08;68.03;96358.94;4992019;28;20428;-77
2021/07/09 10:17:46;;;;;;;7.57;3.43;;;;;;;19.44;68.34;96372.44;4991841;28;20516;-77
2021/07/09 10:20:12;;;;;;;4.60;3.47;;;;;;;19.64;65.97;96360.16;4990486;28;20475;-77
2021/07/09 10:22:37;;;;;;;5.47;3.03;;;;;;;20.02;64.28;96362.78;4990517;28;20453;-77
2021/07/09 10:25:05;;;;;;;10.03;3.70;;;;;;;19.98;64.57;96358.75;4991660;28;20919;-77
2021/07/09 10:27:33;;;;;;;7.13;3.00;;;;;;;19.91;60.32;96355.06;4990582;28;20427;-77
2021/07/09 10:30:03;;;;;;;5.28;3.08;;;;;;;19.80;61.05;96356.03;4990537;28;20800;-78
2021/07/09 10:32:31;;;;;;;5.95;3.28;;;;;;;20.01;61.71;96358.47;4992947;28;20426;-77
2021/07/09 10:34:57;;;;;;;6.28;3.30;;;;;;;20.20;59.09;96359.44;4995370;28;20434;-77
2021/07/09 10:37:28;;;;;;;6.22;3.25;;;;;;;20.32;59.36;96355.69;4991566;28;20426;-77
2021/07/09 10:40:08;;;;;;;6.93;3.33;;;;;;;20.65;61.02;96348.25;4993986;28;20419;-78
2021/07/09 10:42:39;;;;;;;6.65;3.13;;;;;;;20.70;60.32;96348.66;4992642;28;20535;-77
2021/07/09 10:45:21;;;;;;;4.95;2.60;;;;;;;19.92;62.20;96358.50;4975815;28;20921;-77
2021/07/09 10:47:52;;;;;;;6.53;2.85;;;;;;;19.88;61.32;96365.84;4974779;28;20451;-78
2021/07/09 10:50:20;;;;;;;9.37;3.83;;;;;;;19.62;63.71;96357.69;4986274;28;20435;-78
2021/07/09 10:52:48;;;;;;;4.85;3.05;;;;;;;19.44;63.33;96360.13;4990785;28;20447;-78
2021/07/09 10:55:31;;;;;;;5.25;2.97;;;;;;;19.24;61.28;96351.38;4987245;28;20513;-78
2021/07/09 10:58:22;;;;;;;4.95;3.15;;;;;;;19.92;61.70;96359.34;4985364;28;20431;-78
2021/07/09 11:00:49;;;;;;;4.93;2.95;;;;;;;20.59;60.46;96356.75;4982566;28;20431;-77
2021/07/09 11:03:29;;;;;;;4.25;3.10;;;;;;;20.65;60.13;96348.25;4981439;28;20446;-78
2021/07/09 11:06:02;;;;;;;3.92;2.42;;;;;;;20.88;56.72;96341.66;4983118;28;20413;-78
2021/07/09 11:08:40;;;;;;;10.73;2.63;;;;;;;20.47;58.50;96343.72;4981149;28;20798;-78
2021/07/09 11:11:08;;;;;;;6.93;2.70;;;;;;;20.06;60.69;96360.72;4980849;28;20771;-78
2021/07/09 11:13:46;;;;;;;5.90;2.58;;;;;;;20.34;61.26;96353.72;4982230;28;20420;-78
2021/07/09 11:16:26;;;;;;;4.60;2.42;;;;;;;20.73;61.35;96348.38;4980872;28;20461;-78
2021/07/09 11:18:55;;;;;;;5.33;2.50;;;;;;;20.86;55.59;96354.13;4982994;28;20446;-77
2021/07/09 11:22:04;;;;;;;3.70;2.40;;;;;;;20.65;57.46;96346.44;4999747;28;20464;-77
2021/07/09 11:24:32;;;;;;;6.07;2.47;;;;;;;20.83;58.99;96348.31;4919418;29;20440;-78